Time;durP1;ratioP1;P1;durP2;ratioP2;P2;SDS_P1;SDS_P2;PMS_P1;PMS_P2;Temp;Humidity;BMP_temperature;BMP_pressure;BME280_temperature;BME280_humidity;BME280_pressure;Samples;Min_cycle;Max_cycle;Signal;HPM_P1;HPM_P2
2023/12/12 00:01:38;;;;;;;;;;;7.40;99.90;;;;;;5048286;28;20311;-77
2023/12/12 00:04:04;;;;;;;;;;;7.10;99.90;;;;;;5049109;28;19924;-76
2023/12/12 00:06:30;;;;;;;;;;;7.10;99.90;;;;;;5044380;28;19925;-77
2023/12/12 00:08:55;;;;;;;;;;;7.10;99.90;;;;;;5047142;28;19928;-77
2023/12/12 00:11:21;;;;;;;;;;;7.10;99.90;;;;;;5049860;28;19925;-77
2023/12/12 00:13:46;;;;;;;;;;;7.30;99.90;;;;;;5046991;28;20360;-77
2023/12/12 00:16:12;;;;;;;;;;;7.00;99.90;;;;;;5047821;28;19941;-76
2023/12/12 00:18:38;;;;;;;;;;;7.00;99.90;;;;;;5046597;28;20315;-76
2023/12/12 00:21:04;;;;;;;;;;;7.00;99.90;;;;;;5048106;28;19925;-77
2023/12/12 00:23:29;;;;;;;;;;;7.00;99.90;;;;;;5046468;28;19994;-77
2023/12/12 00:25:55;;;;;;;;;;;7.00;99.90;;;;;;5046926;28;19933;-77
2023/12/12 00:28:20;;;;;;;;;;;7.00;99.90;;;;;;5045684;28;20288;-77
2023/12/12 00:30:46;;;;;;;;;;;7.10;99.90;;;;;;5045505;28;20384;-77
2023/12/12 00:33:12;;;;;;;;;;;7.00;99.90;;;;;;5045776;28;20385;-77
2023/12/12 00:35:37;;;;;;;;;;;7.30;99.90;;;;;;5044480;28;20352;-76
2023/12/12 00:38:03;;;;;;;;;;;7.00;99.90;;;;;;5048413;28;19926;-76
2023/12/12 00:40:28;;;;;;;;;;;6.90;99.90;;;;;;5049051;28;19932;-77
2023/12/12 00:42:54;;;;;;;;;;;7.00;99.90;;;;;;5046779;28;19978;-77
2023/12/12 00:45:19;;;;;;;;;;;6.90;99.90;;;;;;5048873;28;20340;-77
2023/12/12 00:47:45;;;;;;;;;;;6.80;99.90;;;;;;5049053;28;19929;-77
2023/12/12 00:50:10;;;;;;;;;;;6.80;99.90;;;;;;5050084;28;19992;-77
2023/12/12 00:52:36;;;;;;;;;;;6.80;99.90;;;;;;5048361;28;19925;-77
2023/12/12 00:55:02;;;;;;;;;;;6.70;99.90;;;;;;5047208;28;20035;-77
2023/12/12 00:57:27;;;;;;;;;;;6.70;99.90;;;;;;5043925;28;19929;-77
2023/12/12 00:59:53;;;;;;;;;;;7.10;99.90;;;;;;5046570;28;19956;-77
2023/12/12 01:02:22;;;;;;;;;;;6.50;99.90;;;;;;5045616;28;19970;-78
2023/12/12 01:04:48;;;;;;;;;;;6.50;99.90;;;;;;5047549;28;19931;-77
2023/12/12 01:07:13;;;;;;;;;;;6.50;99.90;;;;;;5048510;28;20412;-77
2023/12/12 01:09:39;;;;;;;;;;;6.50;99.90;;;;;;5047554;28;20011;-77
2023/12/12 01:12:05;;;;;;;;;;;6.40;99.90;;;;;;5048940;28;19933;-77
2023/12/12 01:14:31;;;;;;;;;;;6.40;99.90;;;;;;5045297;28;19925;-77
2023/12/12 01:16:57;;;;;;;;;;;6.60;99.90;;;;;;5046047;28;19925;-77
2023/12/12 01:19:23;;;;;;;;;;;6.30;99.90;;;;;;5043240;28;19921;-77
2023/12/12 01:21:48;;;;;;;;;;;6.20;99.90;;;;;;5048427;28;19925;-77
2023/12/12 01:24:14;;;;;;;;;;;6.20;99.90;;;;;;5043481;28;19929;-77
2023/12/12 01:26:40;;;;;;;;;;;6.30;99.90;;;;;;5047772;28;19979;-77
2023/12/12 01:29:05;;;;;;;;;;;6.50;99.90;;;;;;5042942;28;19933;-77
2023/12/12 01:31:31;;;;;;;;;;;6.10;99.90;;;;;;5042603;28;20585;-76
2023/12/12 01:33:57;;;;;;;;;;;6.10;99.90;;;;;;5043556;28;19940;-77
2023/12/12 01:36:22;;;;;;;;;;;6.10;99.90;;;;;;5046001;28;20343;-77
2023/12/12 01:38:48;;;;;;;;;;;6.30;99.90;;;;;;5046299;28;20311;-76
2023/12/12 01:41:13;;;;;;;;;;;6.00;99.90;;;;;;5048113;28;20287;-77
2023/12/12 01:43:39;;;;;;;;;;;6.00;99.90;;;;;;5045312;28;20379;-77
2023/12/12 01:46:05;;;;;;;;;;;5.90;99.90;;;;;;5033715;28;19920;-76
2023/12/12 01:48:31;;;;;;;;;;;5.90;99.90;;;;;;5047279;28;19975;-77
2023/12/12 01:50:57;;;;;;;;;;;5.80;99.90;;;;;;5039664;28;19921;-77
2023/12/12 01:53:25;;;;;;;;;;;6.00;99.90;;;;;;5042583;28;20374;-77
2023/12/12 01:55:52;;;;;;;;;;;5.70;99.90;;;;;;5046551;28;19931;-76
2023/12/12 01:58:18;;;;;;;;;;;5.70;99.90;;;;;;5044568;28;19939;-77
2023/12/12 02:00:44;;;;;;;;;;;6.00;99.90;;;;;;5046752;28;20368;-77
2023/12/12 02:03:10;;;;;;;;;;;5.60;99.90;;;;;;5045712;28;19925;-77
2023/12/12 02:05:37;;;;;;;;;;;5.70;99.90;;;;;;5046402;28;20337;-77
2023/12/12 02:08:03;;;;;;;;;;;5.60;99.90;;;;;;5046326;28;20330;-76
2023/12/12 02:10:29;;;;;;;;;;;5.60;99.90;;;;;;5046735;28;19947;-77
2023/12/12 02:12:55;;;;;;;;;;;5.70;99.90;;;;;;5044237;28;19949;-76
2023/12/12 02:15:20;;;;;;;;;;;5.50;99.90;;;;;;5045831;28;20541;-76
2023/12/12 02:17:46;;;;;;;;;;;5.40;99.90;;;;;;5043142;28;20672;-77
2023/12/12 02:20:12;;;;;;;;;;;5.40;99.90;;;;;;5039009;28;20613;-77
2023/12/12 02:22:38;;;;;;;;;;;5.50;99.90;;;;;;5048287;28;19950;-76
2023/12/12 02:25:03;;;;;;;;;;;5.30;99.90;;;;;;5043067;28;19929;-76
2023/12/12 02:27:29;;;;;;;;;;;5.30;99.90;;;;;;5045880;28;19931;-77
2023/12/12 02:29:54;;;;;;;;;;;5.30;99.90;;;;;;5041482;28;19933;-76
2023/12/12 02:32:20;;;;;;;;;;;5.30;99.90;;;;;;5047695;28;19925;-77
2023/12/12 02:34:46;;;;;;;;;;;5.20;99.90;;;;;;5045035;28;19924;-76
2023/12/12 02:37:12;;;;;;;;;;;5.20;99.90;;;;;;5045861;28;19972;-77
2023/12/12 02:39:37;;;;;;;;;;;5.20;99.90;;;;;;5047072;28;19931;-77
2023/12/12 02:42:03;;;;;;;;;;;5.10;99.90;;;;;;5045578;28;19936;-77
2023/12/12 02:44:29;;;;;;;;;;;5.10;99.90;;;;;;5046192;28;20395;-77
2023/12/12 02:46:54;;;;;;;;;;;5.30;99.90;;;;;;5046635;28;19924;-77
2023/12/12 02:49:20;;;;;;;;;;;5.10;99.90;;;;;;5045095;28;19936;-77
2023/12/12 02:51:45;;;;;;;;;;;5.10;99.90;;;;;;5046914;28;19956;-77
2023/12/12 02:54:11;;;;;;;;;;;5.00;99.90;;;;;;5045324;28;19929;-77
2023/12/12 02:56:36;;;;;;;;;;;5.00;99.90;;;;;;5047174;28;19978;-76
2023/12/12 02:59:02;;;;;;;;;;;5.00;99.90;;;;;;5044958;28;19932;-77
2023/12/12 03:01:27;;;;;;;;;;;4.90;99.90;;;;;;5044825;28;19925;-77
2023/12/12 03:03:53;;;;;;;;;;;5.10;99.90;;;;;;5044053;28;19939;-77
2023/12/12 03:06:18;;;;;;;;;;;4.90;99.90;;;;;;5046430;28;19924;-77
2023/12/12 03:08:44;;;;;;;;;;;4.90;99.90;;;;;;5046034;28;19932;-77
2023/12/12 03:11:09;;;;;;;;;;;4.90;99.90;;;;;;5045749;28;19968;-77
2023/12/12 03:13:35;;;;;;;;;;;4.90;99.90;;;;;;5040356;28;19933;-77
2023/12/12 03:16:01;;;;;;;;;;;4.90;99.90;;;;;;5045143;28;20385;-76
2023/12/12 03:18:26;;;;;;;;;;;4.90;99.90;;;;;;5047251;28;19931;-77
2023/12/12 03:20:52;;;;;;;;;;;4.90;99.90;;;;;;5038089;28;19932;-77
2023/12/12 03:23:17;;;;;;;;;;;4.90;99.90;;;;;;5037640;28;19925;-77
2023/12/12 03:25:43;;;;;;;;;;;4.90;99.90;;;;;;5043087;28;19979;-77
2023/12/12 03:28:08;;;;;;;;;;;5.00;99.90;;;;;;5044086;28;19975;-77
2023/12/12 03:30:34;;;;;;;;;;;5.90;99.90;;;;;;5040732;28;19933;-77
2023/12/12 03:32:59;;;;;;;;;;;5.00;99.90;;;;;;5049984;28;19971;-77
2023/12/12 03:35:25;;;;;;;;;;;5.10;99.90;;;;;;5040369;28;19933;-76
2023/12/12 03:37:50;;;;;;;;;;;5.00;99.90;;;;;;5029825;28;19929;-76
2023/12/12 03:40:16;;;;;;;;;;;5.20;99.90;;;;;;5050158;28;19924;-77
2023/12/12 03:42:41;;;;;;;;;;;5.10;99.90;;;;;;5048535;28;20001;-77
2023/12/12 03:45:07;;;;;;;;;;;5.10;99.90;;;;;;5041977;28;20012;-77
2023/12/12 03:47:33;;;;;;;;;;;5.10;99.90;;;;;;5048995;28;19927;-77
2023/12/12 03:49:58;;;;;;;;;;;5.30;99.90;;;;;;5049129;28;19929;-77
2023/12/12 03:52:24;;;;;;;;;;;5.20;99.90;;;;;;5049336;28;19948;-76
2023/12/12 03:54:49;;;;;;;;;;;5.20;99.90;;;;;;5050030;28;19925;-77
2023/12/12 03:57:15;;;;;;;;;;;5.20;99.90;;;;;;5049272;28;19933;-77
2023/12/12 03:59:41;;;;;;;;;;;5.20;99.90;;;;;;5048676;28;19924;-77
2023/12/12 04:02:06;;;;;;;;;;;5.30;99.90;;;;;;5049262;28;19932;-76
2023/12/12 04:04:32;;;;;;;;;;;5.20;99.90;;;;;;5047524;28;19970;-77
2023/12/12 04:06:57;;;;;;;;;;;5.50;99.90;;;;;;5043098;28;20351;-77
2023/12/12 04:09:23;;;;;;;;;;;5.20;99.90;;;;;;5042300;28;19925;-76
2023/12/12 04:11:48;;;;;;;;;;;6.20;99.90;;;;;;5047770;28;20431;-76
2023/12/12 04:14:14;;;;;;;;;;;5.20;99.90;;;;;;5048342;28;19970;-76
2023/12/12 04:16:39;;;;;;;;;;;5.20;99.90;;;;;;5049532;28;20024;-77
2023/12/12 04:19:05;;;;;;;;;;;5.20;99.90;;;;;;5047228;28;19964;-77
2023/12/12 04:21:30;;;;;;;;;;;5.50;99.90;;;;;;5034160;28;19925;-77
2023/12/12 04:23:56;;;;;;;;;;;5.30;99.90;;;;;;5040378;28;19925;-77
2023/12/12 04:26:21;;;;;;;;;;;5.30;99.90;;;;;;5043923;28;19947;-77
2023/12/12 04:28:47;;;;;;;;;;;5.30;99.90;;;;;;5041239;28;20400;-77
2023/12/12 04:31:16;;;;;;;;;;;5.30;99.90;;;;;;5044520;28;20365;-77
2023/12/12 04:33:42;;;;;;;;;;;5.40;99.90;;;;;;5044798;28;20003;-77
2023/12/12 04:36:08;;;;;;;;;;;5.30;99.90;;;;;;5044170;28;20091;-77
2023/12/12 04:38:35;;;;;;;;;;;5.30;99.90;;;;;;5048152;28;19932;-77
2023/12/12 04:41:03;;;;;;;;;;;5.30;99.90;;;;;;5048435;28;19947;-76
2023/12/12 04:43:29;;;;;;;;;;;5.30;99.90;;;;;;5048170;28;20289;-77
2023/12/12 04:45:55;;;;;;;;;;;5.30;99.90;;;;;;5045770;28;19932;-77
2023/12/12 04:48:21;;;;;;;;;;;5.50;99.90;;;;;;5047280;28;20435;-77
2023/12/12 04:50:46;;;;;;;;;;;5.30;99.90;;;;;;5043857;28;20377;-77
2023/12/12 04:53:12;;;;;;;;;;;5.90;99.90;;;;;;5047934;28;19928;-77
2023/12/12 04:55:37;;;;;;;;;;;5.30;99.90;;;;;;5038954;28;19932;-77
2023/12/12 04:58:03;;;;;;;;;;;5.30;99.90;;;;;;5044515;28;20383;-76
2023/12/12 05:00:29;;;;;;;;;;;5.30;99.90;;;;;;5045820;28;19974;-76
2023/12/12 05:02:54;;;;;;;;;;;5.30;99.90;;;;;;5046781;28;20030;-77
2023/12/12 05:05:20;;;;;;;;;;;5.30;99.90;;;;;;5045283;28;19966;-77
2023/12/12 05:07:45;;;;;;;;;;;5.30;99.90;;;;;;5048479;28;19979;-76
2023/12/12 05:10:11;;;;;;;;;;;5.30;99.90;;;;;;5045124;28;19994;-77
2023/12/12 05:12:36;;;;;;;;;;;5.30;99.90;;;;;;5048143;28;19925;-76
2023/12/12 05:15:02;;;;;;;;;;;5.50;99.90;;;;;;5045777;28;19924;-77
2023/12/12 05:17:27;;;;;;;;;;;5.30;99.90;;;;;;5047814;28;19955;-77
2023/12/12 05:19:53;;;;;;;;;;;5.30;99.90;;;;;;5047642;28;19963;-77
2023/12/12 05:22:19;;;;;;;;;;;5.30;99.90;;;;;;5040307;28;20381;-76
2023/12/12 05:24:44;;;;;;;;;;;5.50;99.90;;;;;;5041451;28;20384;-76
2023/12/12 05:27:10;;;;;;;;;;;5.30;99.90;;;;;;5045463;28;19979;-77
2023/12/12 05:29:35;;;;;;;;;;;5.50;99.90;;;;;;5037102;28;19948;-76
2023/12/12 05:32:01;;;;;;;;;;;5.30;99.90;;;;;;5047810;28;19929;-77
2023/12/12 05:34:27;;;;;;;;;;;5.90;99.90;;;;;;5046517;28;19925;-76
2023/12/12 05:36:52;;;;;;;;;;;5.30;99.90;;;;;;5047460;28;19932;-77
2023/12/12 05:39:18;;;;;;;;;;;5.30;99.90;;;;;;5046699;28;20400;-76
2023/12/12 05:41:43;;;;;;;;;;;5.30;99.90;;;;;;5048241;28;19979;-76
2023/12/12 05:44:09;;;;;;;;;;;5.20;99.90;;;;;;5044659;28;19925;-76
2023/12/12 05:46:35;;;;;;;;;;;5.40;99.90;;;;;;5047353;28;19935;-76
2023/12/12 05:49:00;;;;;;;;;;;5.20;99.90;;;;;;5048421;28;19925;-77
2023/12/12 05:51:26;;;;;;;;;;;5.40;99.90;;;;;;5046978;28;19928;-77
2023/12/12 05:53:52;;;;;;;;;;;5.20;99.90;;;;;;5046238;28;19929;-76
2023/12/12 05:56:18;;;;;;;;;;;5.20;99.90;;;;;;5042106;28;19924;-76
2023/12/12 05:58:44;;;;;;;;;;;5.40;99.90;;;;;;5039526;28;19932;-76
2023/12/12 06:01:09;;;;;;;;;;;5.10;99.90;;;;;;5042523;28;20035;-76
2023/12/12 06:03:35;;;;;;;;;;;5.10;99.90;;;;;;5047906;28;19929;-76
2023/12/12 06:06:07;;;;;;;;;;;5.30;99.90;;;;;;5046798;28;19932;-77
2023/12/12 06:08:33;;;;;;;;;;;5.00;99.90;;;;;;5047239;28;19932;-76
2023/12/12 06:10:59;;;;;;;;;;;5.30;99.90;;;;;;5041702;28;19925;-76
2023/12/12 06:13:24;;;;;;;;;;;5.00;99.90;;;;;;5045646;28;19932;-76
2023/12/12 06:15:50;;;;;;;;;;;5.40;99.90;;;;;;5046604;28;19925;-76
2023/12/12 06:18:15;;;;;;;;;;;5.10;99.90;;;;;;5046128;28;19932;-76
2023/12/12 06:20:41;;;;;;;;;;;5.00;99.90;;;;;;5046656;28;20019;-76
2023/12/12 06:23:08;;;;;;;;;;;4.90;99.90;;;;;;5042403;28;20339;-78
2023/12/12 06:25:34;;;;;;;;;;;5.00;99.90;;;;;;5043028;28;19929;-78
2023/12/12 06:27:59;;;;;;;;;;;5.20;99.90;;;;;;5046191;28;20371;-77
2023/12/12 06:30:25;;;;;;;;;;;5.00;99.90;;;;;;5043843;28;19939;-77
2023/12/12 06:32:50;;;;;;;;;;;5.30;99.90;;;;;;5046140;28;19978;-78
2023/12/12 06:35:16;;;;;;;;;;;4.90;99.90;;;;;;5035687;28;19952;-77
2023/12/12 06:37:42;;;;;;;;;;;5.20;99.90;;;;;;5035353;28;20428;-77
2023/12/12 06:40:08;;;;;;;;;;;5.30;99.90;;;;;;5045179;28;19983;-76
2023/12/12 06:42:35;;;;;;;;;;;4.80;99.90;;;;;;5047978;28;19960;-76
2023/12/12 06:45:01;;;;;;;;;;;4.80;99.90;;;;;;5044842;28;19925;-77
2023/12/12 06:47:26;;;;;;;;;;;4.80;99.90;;;;;;5046675;28;20016;-76
2023/12/12 06:49:52;;;;;;;;;;;4.80;99.90;;;;;;5045097;28;19963;-76
2023/12/12 06:52:17;;;;;;;;;;;4.80;99.90;;;;;;5036660;28;19932;-76
2023/12/12 06:54:43;;;;;;;;;;;4.70;99.90;;;;;;5044271;28;19928;-76
2023/12/12 06:57:08;;;;;;;;;;;4.70;99.90;;;;;;5047659;28;19935;-76
2023/12/12 06:59:34;;;;;;;;;;;5.00;99.90;;;;;;5046454;28;20304;-77
2023/12/12 07:01:59;;;;;;;;;;;4.80;99.90;;;;;;5043353;28;19925;-77
2023/12/12 07:04:25;;;;;;;;;;;4.60;99.90;;;;;;5042378;28;19976;-77
2023/12/12 07:06:50;;;;;;;;;;;5.00;99.90;;;;;;5050968;28;19920;-76
2023/12/12 07:09:16;;;;;;;;;;;4.50;99.90;;;;;;5049523;28;20444;-75
2023/12/12 07:11:43;;;;;;;;;;;4.50;99.90;;;;;;5049883;28;20399;-76
2023/12/12 07:14:09;;;;;;;;;;;4.50;99.90;;;;;;5048140;28;19924;-75
2023/12/12 07:16:35;;;;;;;;;;;4.50;99.90;;;;;;5051351;28;19929;-75
2023/12/12 07:19:00;;;;;;;;;;;4.60;99.90;;;;;;5048103;28;19929;-76
2023/12/12 07:21:26;;;;;;;;;;;4.60;99.90;;;;;;5049550;28;19929;-76
2023/12/12 07:23:53;;;;;;;;;;;5.10;99.90;;;;;;5041772;28;19936;-76
2023/12/12 07:26:21;;;;;;;;;;;4.90;99.90;;;;;;5050024;28;20340;-76
2023/12/12 07:28:46;;;;;;;;;;;4.60;99.90;;;;;;5045659;28;19970;-76
2023/12/12 07:31:13;;;;;;;;;;;4.60;99.90;;;;;;5045584;28;19964;-75
2023/12/12 07:33:40;;;;;;;;;;;4.80;99.90;;;;;;5050222;28;20633;-76
2023/12/12 07:36:06;;;;;;;;;;;4.60;99.90;;;;;;5047489;28;19935;-76
2023/12/12 07:38:31;;;;;;;;;;;4.50;99.90;;;;;;5048436;28;19921;-75
2023/12/12 07:40:59;;;;;;;;;;;4.50;99.90;;;;;;5048332;28;19971;-75
2023/12/12 07:43:24;;;;;;;;;;;4.60;99.90;;;;;;5047622;28;19928;-75
2023/12/12 07:45:50;;;;;;;;;;;4.50;99.90;;;;;;5050837;28;20015;-76
2023/12/12 07:48:16;;;;;;;;;;;4.80;99.90;;;;;;5050191;28;19978;-75
2023/12/12 07:50:42;;;;;;;;;;;4.60;99.90;;;;;;5048937;28;19925;-76
2023/12/12 07:53:07;;;;;;;;;;;4.90;99.90;;;;;;5040555;28;19925;-75
2023/12/12 07:55:33;;;;;;;;;;;4.70;99.90;;;;;;5045946;28;19924;-75
2023/12/12 07:57:58;;;;;;;;;;;4.80;99.90;;;;;;5043629;28;19927;-75
2023/12/12 08:00:26;;;;;;;;;;;4.70;99.90;;;;;;5041734;28;19933;-75
2023/12/12 08:02:52;;;;;;;;;;;5.50;99.90;;;;;;5039499;28;19978;-75
2023/12/12 08:05:17;;;;;;;;;;;4.80;99.90;;;;;;5042511;28;19932;-75
2023/12/12 08:07:43;;;;;;;;;;;4.80;99.90;;;;;;5048836;28;19924;-76
2023/12/12 08:10:08;;;;;;;;;;;4.80;99.90;;;;;;5047789;28;19960;-75
2023/12/12 08:12:34;;;;;;;;;;;4.80;99.90;;;;;;5048654;28;19932;-77
2023/12/12 08:15:00;;;;;;;;;;;5.00;99.90;;;;;;5046763;28;20438;-75
2023/12/12 08:17:26;;;;;;;;;;;4.80;99.90;;;;;;5048821;28;19968;-75
2023/12/12 08:19:52;;;;;;;;;;;4.90;99.90;;;;;;5045485;28;20458;-75
2023/12/12 08:22:17;;;;;;;;;;;4.90;99.90;;;;;;5043420;28;19924;-75
2023/12/12 08:24:45;;;;;;;;;;;4.90;99.90;;;;;;5047130;28;20032;-75
2023/12/12 08:27:12;;;;;;;;;;;4.90;99.90;;;;;;5042590;28;19929;-74
2023/12/12 08:29:40;;;;;;;;;;;4.90;99.90;;;;;;5028938;28;19939;-75
2023/12/12 08:32:06;;;;;;;;;;;5.00;99.90;;;;;;5046378;28;20262;-75
2023/12/12 08:34:33;;;;;;;;;;;5.00;99.90;;;;;;5047200;28;19940;-75
2023/12/12 08:36:59;;;;;;;;;;;5.00;99.90;;;;;;5040349;28;20333;-80
2023/12/12 08:39:25;;;;;;;;;;;5.10;99.90;;;;;;5048834;28;19932;-76
2023/12/12 08:41:50;;;;;;;;;;;5.20;99.90;;;;;;5048374;28;20474;-76
2023/12/12 08:44:17;;;;;;;;;;;5.20;99.90;;;;;;5046013;28;20555;-76
2023/12/12 08:46:43;;;;;;;;;;;5.10;99.90;;;;;;5047834;28;19951;-77
2023/12/12 08:49:09;;;;;;;;;;;5.20;99.90;;;;;;5047072;28;19971;-77
2023/12/12 08:51:35;;;;;;;;;;;5.20;99.90;;;;;;5048851;28;19976;-77
2023/12/12 08:54:03;;;;;;;;;;;5.20;99.90;;;;;;5048398;28;20012;-78
2023/12/12 08:56:29;;;;;;;;;;;5.30;99.90;;;;;;5031374;28;20024;-77
2023/12/12 08:58:57;;;;;;;;;;;5.50;99.90;;;;;;5043447;28;20007;-77
2023/12/12 09:04:43;;;;;;;0.20;0.20;;;5.40;99.90;;;;;;5124633;27;20989;-77
2023/12/12 09:07:12;;;;;;;0.20;0.20;;;5.50;99.90;;;;;;5110001;28;20047;-78
2023/12/12 09:09:37;;;;;;;0.20;0.20;;;5.60;99.90;;;;;;5123110;27;20070;-78
2023/12/12 09:12:04;;;;;;;0.20;0.20;;;5.60;99.90;;;;;;5121748;27;20047;-79
2023/12/12 09:14:30;;;;;;;0.20;0.20;;;5.60;99.90;;;;;;5122660;28;20047;-77
2023/12/12 09:16:56;;;;;;;0.20;0.20;;;5.70;99.90;;;;;;5122440;27;20049;-78
2023/12/12 09:19:21;;;;;;;0.20;0.20;;;5.70;99.90;;;;;;5125891;28;20092;-78
2023/12/12 09:21:48;;;;;;;0.20;0.20;;;5.70;99.90;;;;;;5135832;27;20131;-78
2023/12/12 09:24:14;;;;;;;0.20;0.20;;;5.70;99.90;;;;;;5113138;27;20043;-78
2023/12/12 09:26:40;;;;;;;0.20;0.20;;;5.80;99.90;;;;;;5109896;28;20544;-75
2023/12/12 09:29:06;;;;;;;0.20;0.20;;;5.70;99.90;;;;;;5128636;27;20047;-75
2023/12/12 09:31:32;;;;;;;0.20;0.20;;;5.60;99.90;;;;;;5123982;28;20067;-76
2023/12/12 09:33:58;;;;;;;0.20;0.20;;;5.90;99.90;;;;;;5121774;27;20398;-74
2023/12/12 09:36:23;;;;;;;0.20;0.20;;;5.60;99.90;;;;;;5124331;27;20044;-75
2023/12/12 09:38:49;;;;;;;0.20;0.20;;;5.70;99.90;;;;;;5125257;27;20069;-76
2023/12/12 09:41:23;;;;;;;0.20;0.20;;;5.70;99.90;;;;;;5125462;27;20096;-76
2023/12/12 09:43:50;;;;;;;0.20;0.20;;;5.70;99.90;;;;;;5121119;28;20081;-76
2023/12/12 09:46:17;;;;;;;0.20;0.20;;;5.70;99.90;;;;;;5123936;28;20111;-76
2023/12/12 09:48:47;;;;;;;0.40;0.40;;;6.00;99.90;;;;;;5126523;27;20042;-75
2023/12/12 09:51:17;;;;;;;0.20;0.20;;;5.70;99.90;;;;;;5123292;27;20039;-76
2023/12/12 09:53:46;;;;;;;0.20;0.20;;;5.70;99.90;;;;;;5124683;27;20130;-76
2023/12/12 09:56:15;;;;;;;0.20;0.20;;;5.70;99.90;;;;;;5119826;28;20487;-76
2023/12/12 09:58:49;;;;;;;0.20;0.20;;;5.70;99.90;;;;;;5117315;28;20075;-76
2023/12/12 10:01:16;;;;;;;0.20;0.20;;;5.70;99.90;;;;;;5123900;27;20040;-76
2023/12/12 10:03:42;;;;;;;0.20;0.20;;;5.70;99.90;;;;;;5115074;28;20132;-76
2023/12/12 10:06:12;;;;;;;0.20;0.20;;;5.70;99.90;;;;;;5118381;27;20051;-76
2023/12/12 10:08:39;;;;;;;0.20;0.20;;;5.80;99.90;;;;;;5118279;28;20048;-75
2023/12/12 10:11:07;;;;;;;0.20;0.20;;;5.80;99.90;;;;;;5102479;28;20336;-75
2023/12/12 10:13:50;;;;;;;0.20;0.20;;;5.80;99.90;;;;;;5115865;28;20035;-74
2023/12/12 10:16:16;;;;;;;0.20;0.20;;;5.80;99.90;;;;;;5105799;28;20564;-76
2023/12/12 10:18:46;;;;;;;0.20;0.20;;;6.20;99.90;;;;;;5109195;28;20131;-75
2023/12/12 10:21:20;;;;;;;0.20;0.20;;;5.90;99.90;;;;;;5119002;27;20059;-76
2023/12/12 10:23:51;;;;;;;0.20;0.20;;;6.00;99.90;;;;;;5104808;28;20043;-77
2023/12/12 10:26:46;;;;;;;0.20;0.20;;;6.00;99.90;;;;;;5108228;27;20123;-76
2023/12/12 10:29:11;;;;;;;0.20;0.20;;;6.00;99.90;;;;;;5103078;28;20289;-76
2023/12/12 10:31:37;;;;;;;0.20;0.20;;;6.00;99.90;;;;;;5116220;27;20043;-77
2023/12/12 10:34:03;;;;;;;0.20;0.20;;;6.00;99.90;;;;;;5109899;28;20043;-76
2023/12/12 10:36:31;;;;;;;0.20;0.20;;;6.50;99.90;;;;;;5109401;28;20487;-76
2023/12/12 10:39:12;;;;;;;0.20;0.20;;;6.10;99.90;;;;;;5109390;28;20043;-75
2023/12/12 10:41:37;;;;;;;0.20;0.20;;;6.10;99.90;;;;;;5110528;28;20035;-75
2023/12/12 10:44:05;;;;;;;0.20;0.20;;;6.10;99.90;;;;;;5109167;28;20101;-75
2023/12/12 10:46:36;;;;;;;0.20;0.20;;;6.10;99.90;;;;;;5106494;28;20325;-75
2023/12/12 10:49:03;;;;;;;0.20;0.20;;;6.10;99.90;;;;;;5102910;28;20304;-77
2023/12/12 10:51:32;;;;;;;0.20;0.20;;;6.10;99.90;;;;;;5105851;28;20052;-77
2023/12/12 10:54:00;;;;;;;0.20;0.20;;;6.10;99.90;;;;;;5110665;27;20100;-77
2023/12/12 10:56:46;;;;;;;0.20;0.20;;;6.50;99.90;;;;;;5103527;28;20055;-76
2023/12/12 10:59:16;;;;;;;0.20;0.20;;;6.20;99.90;;;;;;5104999;28;20031;-76
2023/12/12 11:01:47;;;;;;;0.20;0.20;;;6.20;99.90;;;;;;5104304;28;20044;-77
2023/12/12 11:04:17;;;;;;;0.20;0.20;;;6.20;99.90;;;;;;5105544;28;20089;-76
2023/12/12 11:06:43;;;;;;;0.20;0.20;;;6.20;99.90;;;;;;5096560;27;20123;-77
2023/12/12 11:09:10;;;;;;;0.20;0.20;;;6.20;99.90;;;;;;5107330;28;20051;-78
2023/12/12 11:11:41;;;;;;;0.20;0.20;;;6.20;99.90;;;;;;5111412;28;20046;-77
2023/12/12 11:14:09;;;;;;;0.20;0.20;;;6.20;99.90;;;;;;5108451;28;20688;-78
2023/12/12 11:16:34;;;;;;;0.20;0.20;;;6.20;99.90;;;;;;5109530;28;20044;-77
2023/12/12 11:19:03;;;;;;;0.20;0.20;;;6.20;99.90;;;;;;5112522;27;20039;-77
2023/12/12 11:21:46;;;;;;;0.20;0.20;;;6.20;99.90;;;;;;5099065;28;20371;-77
2023/12/12 11:24:13;;;;;;;0.17;0.17;;;6.40;99.90;;;;;;5103789;28;20059;-78
2023/12/12 11:26:41;;;;;;;0.20;0.20;;;6.20;99.90;;;;;;5101615;28;20073;-77
2023/12/12 11:29:10;;;;;;;0.20;0.20;;;6.20;99.90;;;;;;5097907;28;20145;-77
2023/12/12 11:31:36;;;;;;;0.20;0.20;;;6.20;99.90;;;;;;5103409;28;20054;-77
2023/12/12 11:34:12;;;;;;;0.20;0.20;;;6.10;99.90;;;;;;5105171;28;20058;-77
2023/12/12 11:36:52;;;;;;;0.20;0.20;;;6.20;99.90;;;;;;5105464;28;20051;-78
2023/12/12 11:39:22;;;;;;;0.20;0.20;;;6.20;99.90;;;;;;5121932;27;20122;-76
2023/12/12 11:41:47;;;;;;;0.20;0.20;;;6.20;99.90;;;;;;5089097;28;20134;-77
2023/12/12 11:44:17;;;;;;;0.20;0.20;;;6.20;99.90;;;;;;5107512;28;20119;-77
2023/12/12 11:46:42;;;;;;;0.20;0.20;;;6.30;99.90;;;;;;5109776;28;20059;-77
2023/12/12 11:49:19;;;;;;;0.20;0.20;;;6.20;99.90;;;;;;5104703;27;20039;-76
2023/12/12 11:51:46;;;;;;;0.20;0.20;;;6.20;99.90;;;;;;5109329;28;20131;-77
2023/12/12 11:54:23;;;;;;;0.20;0.20;;;6.30;99.90;;;;;;5103167;28;20040;-77
2023/12/12 11:56:58;;;;;;;0.20;0.20;;;6.30;99.90;;;;;;5089534;28;20032;-78
2023/12/12 11:59:24;;;;;;;0.20;0.20;;;6.30;99.90;;;;;;5107482;28;20510;-78
2023/12/12 12:01:51;;;;;;;0.20;0.20;;;6.70;99.90;;;;;;5105633;28;20293;-77
2023/12/12 12:04:17;;;;;;;0.20;0.20;;;6.40;99.90;;;;;;5100141;28;20051;-78
2023/12/12 12:06:43;;;;;;;0.20;0.20;;;6.30;99.90;;;;;;5104171;28;20086;-77
2023/12/12 12:09:11;;;;;;;0.20;0.20;;;6.40;99.90;;;;;;5100485;28;20048;-78
2023/12/12 12:11:40;;;;;;;0.20;0.20;;;6.40;99.90;;;;;;5106220;28;20043;-78
2023/12/12 12:14:06;;;;;;;0.13;0.13;;;6.40;99.90;;;;;;5111787;27;20031;-78
2023/12/12 12:16:32;;;;;;;0.20;0.20;;;6.40;99.90;;;;;;5089492;28;20188;-78
2023/12/12 12:18:58;;;;;;;0.20;0.20;;;6.40;99.90;;;;;;5105410;28;20122;-79
2023/12/12 12:21:27;;;;;;;0.20;0.20;;;6.40;99.90;;;;;;5108876;28;20132;-79
2023/12/12 12:23:53;;;;;;;0.20;0.20;;;6.40;99.90;;;;;;5118321;27;20047;-79
2023/12/12 12:26:19;;;;;;;0.20;0.20;;;6.40;99.90;;;;;;5107412;27;20063;-79
2023/12/12 12:28:45;;;;;;;0.20;0.20;;;6.40;99.90;;;;;;5102230;28;20398;-78
2023/12/12 12:31:10;;;;;;;0.20;0.20;;;6.40;99.90;;;;;;5101436;28;20354;-78
2023/12/12 12:33:37;;;;;;;0.20;0.20;;;6.60;99.90;;;;;;5101121;28;20403;-78
2023/12/12 12:36:04;;;;;;;0.20;0.20;;;6.30;99.90;;;;;;5091739;28;20050;-79
2023/12/12 12:38:31;;;;;;;0.20;0.20;;;6.30;99.90;;;;;;5099152;28;20036;-79
2023/12/12 12:41:00;;;;;;;0.20;0.20;;;6.40;99.90;;;;;;5102942;28;20532;-77
2023/12/12 12:43:26;;;;;;;0.20;0.20;;;6.40;99.90;;;;;;5108245;28;20379;-79
2023/12/12 12:45:52;;;;;;;0.20;0.20;;;6.40;99.90;;;;;;5115099;27;20054;-78
2023/12/12 12:48:18;;;;;;;0.20;0.20;;;6.40;99.90;;;;;;5106269;28;20486;-78
2023/12/12 12:50:46;;;;;;;0.20;0.20;;;6.40;99.90;;;;;;5106519;28;20047;-76
2023/12/12 12:53:12;;;;;;;0.20;0.20;;;6.40;99.90;;;;;;5106556;28;20035;-76
2023/12/12 12:55:40;;;;;;;0.20;0.20;;;6.40;99.90;;;;;;5104128;28;20089;-75
2023/12/12 12:58:07;;;;;;;0.20;0.20;;;6.50;99.90;;;;;;5107247;28;20039;-76
2023/12/12 13:00:33;;;;;;;0.20;0.20;;;6.40;99.90;;;;;;5098203;28;20032;-75
2023/12/12 13:02:59;;;;;;;0.20;0.20;;;6.40;99.90;;;;;;5123590;28;20312;-76
2023/12/12 13:05:28;;;;;;;0.20;0.20;;;6.50;99.90;;;;;;5099832;28;20469;-75
2023/12/12 13:07:53;;;;;;;0.20;0.20;;;6.50;99.90;;;;;;5124134;28;20086;-75
2023/12/12 13:10:19;;;;;;;0.20;0.20;;;6.50;99.90;;;;;;5112237;28;20063;-75
2023/12/12 13:12:45;;;;;;;0.20;0.20;;;6.50;99.90;;;;;;5105495;28;20081;-75
2023/12/12 13:15:11;;;;;;;0.20;0.20;;;6.50;99.90;;;;;;5106345;28;20035;-75
2023/12/12 13:17:37;;;;;;;0.20;0.20;;;6.50;99.90;;;;;;5107216;28;20054;-75
2023/12/12 13:20:09;;;;;;;0.20;0.20;;;6.50;99.90;;;;;;5106444;28;20131;-75
2023/12/12 13:22:45;;;;;;;0.20;0.20;;;6.50;99.90;;;;;;5098794;28;20052;-75
2023/12/12 13:25:12;;;;;;;0.20;0.20;;;6.50;99.90;;;;;;5101014;28;20044;-76
2023/12/12 13:27:39;;;;;;;0.25;0.25;;;6.60;99.90;;;;;;5100837;28;20032;-75
2023/12/12 13:30:06;;;;;;;0.20;0.20;;;6.60;99.90;;;;;;5103405;28;20046;-76
2023/12/12 13:32:41;;;;;;;0.20;0.20;;;6.60;99.90;;;;;;5106635;28;20122;-76
2023/12/12 13:35:09;;;;;;;0.20;0.20;;;6.60;99.90;;;;;;5097452;28;20506;-75
2023/12/12 13:37:36;;;;;;;0.20;0.20;;;6.60;99.90;;;;;;5103023;28;20339;-76
2023/12/12 13:40:08;;;;;;;0.20;0.20;;;6.60;99.90;;;;;;5099756;28;20082;-76
2023/12/12 13:42:35;;;;;;;0.20;0.20;;;6.50;99.90;;;;;;5105847;28;20039;-74
2023/12/12 13:45:05;;;;;;;0.20;0.20;;;6.60;99.90;;;;;;5101346;28;20044;-74
2023/12/12 13:47:31;;;;;;;0.20;0.20;;;6.60;99.90;;;;;;5104967;28;20501;-74
2023/12/12 13:49:57;;;;;;;0.20;0.20;;;6.50;99.90;;;;;;5108033;28;20414;-73
2023/12/12 13:52:23;;;;;;;0.20;0.20;;;6.60;99.90;;;;;;5108100;27;20035;-73
2023/12/12 13:54:49;;;;;;;0.20;0.20;;;6.60;99.90;;;;;;5110656;28;20088;-74